Time;durP1;ratioP1;P1;durP2;ratioP2;P2;SDS_P1;SDS_P2;PMS_P1;PMS_P2;Temp;Humidity;BMP_temperature;BMP_pressure;BME280_temperature;BME280_humidity;BME280_pressure;Samples;Min_cycle;Max_cycle;Signal;HPM_P1;HPM_P2
2023/10/07 00:01:01;;;;;;;8.35;3.17;;;;;;;14.66;53.94;99931.84;4450885;32;33491;-87
2023/10/07 00:03:29;;;;;;;8.85;4.28;;;;;;;14.58;54.16;99929.19;4451814;32;34078;-85
2023/10/07 00:06:02;;;;;;;9.63;3.45;;;;;;;14.52;54.41;99916.09;4453155;32;33189;-87
2023/10/07 00:08:34;;;;;;;11.48;3.90;;;;;;;14.50;54.39;99923.91;4451920;32;34735;-86
2023/10/07 00:11:09;;;;;;;8.00;4.30;;;;;;;14.51;54.43;99919.59;4467094;32;34170;-86
2023/10/07 00:13:42;;;;;;;9.68;3.83;;;;;;;14.48;54.54;99920.38;4452722;32;33633;-86
2023/10/07 00:16:17;;;;;;;9.52;4.25;;;;;;;14.45;54.68;99906.44;4451574;32;33558;-86
2023/10/07 00:18:48;;;;;;;12.37;4.40;;;;;;;14.44;54.70;99897.75;4438872;32;34102;-86
2023/10/07 00:21:23;;;;;;;9.20;3.60;;;;;;;14.48;54.62;99904.72;4441461;32;34572;-86
2023/10/07 00:23:54;;;;;;;8.63;4.15;;;;;;;14.53;54.40;99902.19;4451354;32;33412;-86
2023/10/07 00:26:22;;;;;;;9.68;4.00;;;;;;;14.43;54.77;99895.97;4451607;32;34085;-87
2023/10/07 00:29:00;;;;;;;9.30;4.00;;;;;;;14.36;55.09;99897.66;4459311;32;33769;-86
2023/10/07 00:31:33;;;;;;;9.50;3.90;;;;;;;14.39;54.96;99904.63;4466700;32;33904;-88
2023/10/07 00:34:18;;;;;;;10.90;4.57;;;;;;;14.33;55.04;99904.59;4451631;32;33176;-86
2023/10/07 00:36:47;;;;;;;8.05;3.75;;;;;;;14.31;55.34;99895.88;4451675;32;33639;-87
2023/10/07 00:39:21;;;;;;;7.22;3.40;;;;;;;14.37;55.27;99893.31;4451604;32;34809;-86
2023/10/07 00:41:58;;;;;;;11.50;4.03;;;;;;;14.17;55.86;99897.47;4453604;32;33139;-86
2023/10/07 00:44:32;;;;;;;9.57;4.18;;;;;;;14.30;55.41;99892.38;4453668;32;33022;-86
2023/10/07 00:49:41;;;;;;;7.60;3.70;;;;;;;14.17;56.18;99892.25;4453142;32;34032;-86
2023/10/07 00:52:12;;;;;;;9.18;4.10;;;;;;;14.23;56.11;99877.53;4441025;32;33523;-86
2023/10/07 00:54:50;;;;;;;8.13;3.72;;;;;;;14.33;55.92;99868.06;4437414;32;34135;-86
2023/10/07 00:57:29;;;;;;;9.38;4.07;;;;;;;14.15;56.39;99868.78;4454112;32;33422;-86
2023/10/07 00:59:58;;;;;;;7.03;3.55;;;;;;;14.17;56.35;99863.56;4466656;32;33823;-86
2023/10/07 01:02:30;;;;;;;12.13;4.45;;;;;;;14.14;56.52;99864.41;4452744;32;33370;-86
2023/10/07 01:05:09;;;;;;;9.38;3.92;;;;;;;14.24;56.46;99857.53;4456510;32;33108;-86
2023/10/07 01:07:37;;;;;;;9.07;4.35;;;;;;;14.05;57.33;99864.31;4466620;32;33531;-86
2023/10/07 01:10:13;;;;;;;9.52;4.15;;;;;;;14.18;56.85;99849.69;4465051;32;34164;-86
2023/10/07 01:12:44;;;;;;;10.15;4.70;;;;;;;14.17;56.74;99853.12;4467269;32;34571;-85
2023/10/07 01:15:22;;;;;;;9.20;3.85;;;;;;;14.18;56.67;99854.91;4468306;32;34148;-86
2023/10/07 01:17:57;;;;;;;11.30;4.45;;;;;;;14.14;56.69;99846.16;4456149;32;33537;-86
2023/10/07 01:20:34;;;;;;;11.32;4.65;;;;;;;14.10;56.93;99836.56;4437618;32;32812;-86
2023/10/07 01:23:07;;;;;;;7.90;3.97;;;;;;;14.15;56.87;99841.81;4452984;32;33866;-87
2023/10/07 01:25:36;;;;;;;11.85;4.35;;;;;;;14.07;57.22;99840.00;4438976;32;33392;-86
2023/10/07 01:28:07;;;;;;;7.87;4.20;;;;;;;14.16;57.08;99834.00;4466276;32;33396;-86
2023/10/07 01:30:35;;;;;;;10.50;4.85;;;;;;;14.16;56.93;99826.19;4452765;32;34541;-86
2023/10/07 01:33:24;;;;;;;11.10;4.60;;;;;;;14.16;56.89;99828.78;4466970;32;34356;-86
2023/10/07 01:38:40;;;;;;;11.55;4.55;;;;;;;14.03;57.37;99827.81;4465620;32;33912;-86
2023/10/07 01:41:15;;;;;;;9.95;4.55;;;;;;;13.99;57.48;99826.03;4453006;32;33720;-86
2023/10/07 01:43:42;;;;;;;9.63;4.32;;;;;;;14.02;57.43;99825.22;4452626;32;33894;-86
2023/10/07 01:46:13;;;;;;;10.07;4.50;;;;;;;14.07;57.06;99824.38;4439270;32;33333;-86
2023/10/07 01:48:49;;;;;;;11.45;4.93;;;;;;;14.00;57.27;99821.69;4455151;32;33764;-86
2023/10/07 01:51:18;;;;;;;9.93;4.65;;;;;;;14.03;57.37;99825.22;4467291;32;33857;-86
2023/10/07 01:53:46;;;;;;;12.35;4.97;;;;;;;13.97;57.57;99822.53;4467841;32;34667;-86
2023/10/07 01:56:15;;;;;;;11.23;4.53;;;;;;;13.94;57.66;99812.09;4468145;32;34080;-86
2023/10/07 01:58:42;;;;;;;9.48;4.62;;;;;;;13.88;57.85;99822.44;4467345;32;35424;-86
2023/10/07 02:01:10;;;;;;;11.35;4.45;;;;;;;13.94;57.66;99819.91;4461751;32;34609;-86
2023/10/07 02:03:38;;;;;;;10.95;5.05;;;;;;;13.96;57.64;99818.19;4452837;32;33997;-87
2023/10/07 02:06:05;;;;;;;10.68;5.03;;;;;;;13.96;57.68;99806.88;4452969;32;32540;-86
2023/10/07 02:08:33;;;;;;;11.35;4.65;;;;;;;13.98;57.48;99813.88;4453734;32;34081;-86
2023/10/07 02:11:05;;;;;;;11.88;4.87;;;;;;;13.93;57.78;99812.94;4467829;32;34637;-86
2023/10/07 02:13:33;;;;;;;10.10;4.43;;;;;;;13.91;58.23;99819.88;4461637;32;33832;-86
2023/10/07 02:16:05;;;;;;;11.23;4.62;;;;;;;13.91;58.13;99808.59;4452749;32;32990;-84
2023/10/07 02:18:35;;;;;;;11.77;4.97;;;;;;;13.86;58.51;99806.81;4453368;32;33596;-86
2023/10/07 02:21:08;;;;;;;12.37;5.25;;;;;;;13.78;58.78;99804.97;4468382;32;33836;-86
2023/10/07 02:26:16;;;;;;;9.82;5.12;;;;;;;13.69;59.23;99803.16;4449790;32;32675;-86
2023/10/07 02:28:45;;;;;;;12.45;5.45;;;;;;;13.79;58.86;99791.09;4452446;32;33649;-86
2023/10/07 02:31:17;;;;;;;9.82;5.20;;;;;;;13.75;59.03;99799.72;4452578;32;33863;-86
2023/10/07 02:33:53;;;;;;;11.70;5.00;;;;;;;13.81;59.03;99794.56;4452682;32;34586;-87
2023/10/07 02:36:36;;;;;;;11.82;5.30;;;;;;;13.74;59.24;99793.63;4443707;32;33511;-86
2023/10/07 02:39:18;;;;;;;11.10;5.20;;;;;;;13.75;59.62;99794.50;4468140;32;33814;-86
2023/10/07 02:41:47;;;;;;;10.55;4.93;;;;;;;13.69;59.84;99800.53;4467519;32;34596;-87
2023/10/07 02:44:26;;;;;;;13.80;5.28;;;;;;;13.73;59.61;99791.03;4452424;32;33309;-87
2023/10/07 02:46:54;;;;;;;12.10;6.00;;;;;;;13.72;59.86;99784.94;4460646;32;34168;-87
2023/10/07 02:49:25;;;;;;;11.10;5.65;;;;;;;13.62;60.29;99796.13;4467930;32;33607;-86
2023/10/07 02:51:58;;;;;;;11.77;5.57;;;;;;;13.68;60.20;99787.50;4467873;32;34558;-86
2023/10/07 02:54:41;;;;;;;10.95;5.45;;;;;;;13.71;60.36;99775.34;4456507;32;33678;-86
2023/10/07 02:57:21;;;;;;;10.85;5.32;;;;;;;13.70;60.37;99776.22;4446833;32;34378;-87
2023/10/07 03:00:00;;;;;;;14.77;5.45;;;;;;;13.66;60.56;99770.97;4455425;32;34198;-85
2023/10/07 03:02:48;;;;;;;14.00;5.60;;;;;;;13.66;60.36;99768.38;4467924;32;34058;-86
2023/10/07 03:05:27;;;;;;;11.20;5.55;;;;;;;13.76;59.83;99759.78;4467801;32;33644;-87
2023/10/07 03:08:04;;;;;;;9.95;5.18;;;;;;;13.62;60.33;99770.06;4453387;32;33323;-86
2023/10/07 03:10:44;;;;;;;10.10;5.50;;;;;;;13.52;60.76;99760.41;4467619;32;34966;-86
2023/10/07 03:13:15;;;;;;;11.88;6.10;;;;;;;13.56;60.97;99752.66;4452368;32;34789;-86
2023/10/07 03:15:46;;;;;;;11.07;5.65;;;;;;;13.71;60.52;99767.53;4426814;32;32503;-95
2023/10/07 03:18:23;;;;;;;13.20;5.80;;;;;;;13.42;61.46;99766.41;4439259;32;34296;-86
2023/10/07 03:21:06;;;;;;;12.65;6.28;;;;;;;13.56;61.15;99767.38;4452450;32;33830;-90
2023/10/07 03:23:37;;;;;;;10.70;5.40;;;;;;;13.57;61.34;99769.16;4456937;32;34100;-86
2023/10/07 03:28:36;;;;;;;11.00;5.25;;;;;;;13.54;61.74;99761.31;4467978;32;33869;-86
2023/10/07 03:31:08;;;;;;;11.75;5.62;;;;;;;13.57;61.67;99756.13;4441140;32;34514;-85
2023/10/07 03:41:47;;;;;;;14.40;5.62;;;;;;;13.57;61.81;99763.94;4464803;32;33496;-86
2023/10/07 03:44:16;;;;;;;11.85;5.65;;;;;;;13.52;62.17;99761.28;4458196;32;34671;-87
2023/10/07 03:46:47;;;;;;;11.10;6.03;;;;;;;13.49;62.50;99761.28;4438126;32;33780;-86
2023/10/07 03:49:16;;;;;;;12.45;6.68;;;;;;;13.50;62.82;99760.41;4452258;32;33415;-87
2023/10/07 03:51:48;;;;;;;12.18;5.60;;;;;;;13.42;63.32;99764.66;4446972;32;34211;-88
2023/10/07 03:54:16;;;;;;;13.68;6.53;;;;;;;13.25;63.65;99760.97;4466806;32;35460;-86
2023/10/07 03:56:49;;;;;;;13.27;6.40;;;;;;;13.39;63.36;99754.22;4453328;32;33507;-87
2023/10/07 03:59:17;;;;;;;10.32;5.50;;;;;;;13.47;63.29;99760.38;4455694;32;33086;-86
2023/10/07 04:01:46;;;;;;;10.93;5.75;;;;;;;13.45;63.31;99761.19;4437696;32;33989;-86
2023/10/07 04:04:14;;;;;;;11.23;6.43;;;;;;;13.53;63.15;99770.88;4451817;32;34980;-86
2023/10/07 04:06:41;;;;;;;11.25;6.32;;;;;;;13.43;63.34;99755.13;4451979;32;34610;-86
2023/10/07 04:09:11;;;;;;;16.87;7.07;;;;;;;13.45;63.50;99764.69;4462326;32;33030;-95
2023/10/07 04:11:48;;;;;;;12.00;6.90;;;;;;;13.52;63.50;99771.69;4467594;32;33786;-94
2023/10/07 04:14:19;;;;;;;19.15;8.25;;;;;;;13.40;64.67;99763.75;4460080;32;34446;-86
2023/10/07 04:16:52;;;;;;;11.15;6.47;;;;;;;13.37;65.26;99758.50;4438163;32;34175;-86
2023/10/07 04:21:55;;;;;;;11.82;7.12;;;;;;;13.44;65.51;99747.31;4438092;32;34553;-87
2023/10/07 04:24:23;;;;;;;16.08;8.57;;;;;;;13.42;65.79;99749.03;4452950;32;35183;-86
2023/10/07 04:26:54;;;;;;;12.23;7.47;;;;;;;13.42;66.09;99746.44;4451599;32;34575;-86
2023/10/07 04:29:26;;;;;;;12.75;6.90;;;;;;;13.47;65.81;99754.28;4451787;32;34349;-85
2023/10/07 04:31:54;;;;;;;12.07;6.65;;;;;;;13.56;65.59;99747.44;4451873;32;34253;-86
2023/10/07 04:34:24;;;;;;;11.65;6.95;;;;;;;13.49;65.76;99743.03;4453120;32;34049;-86
2023/10/07 04:40:47;;;;;;;13.05;6.95;;;;;;;13.36;66.58;99744.63;4453493;32;34140;-86
2023/10/07 04:42:59;;;;;;;15.07;8.45;;;;;;;13.55;66.09;99743.06;4463086;32;34354;-85
2023/10/07 04:45:35;;;;;;;14.68;6.97;;;;;;;13.62;65.81;99741.41;4451661;32;33867;-85
2023/10/07 04:48:24;;;;;;;16.02;7.28;;;;;;;13.77;65.21;99736.34;4451554;32;34542;-86
2023/10/07 04:53:57;;;;;;;15.27;7.75;;;;;;;13.66;65.43;99737.97;4443546;32;33868;-86
2023/10/07 04:56:26;;;;;;;13.23;6.82;;;;;;;13.61;65.27;99744.88;4451231;32;33754;-86
2023/10/07 04:58:54;;;;;;;10.98;6.90;;;;;;;13.65;64.73;99737.97;4437596;32;33568;-86
2023/10/07 05:01:31;;;;;;;13.30;7.12;;;;;;;13.70;64.75;99746.69;4437252;32;34163;-86
2023/10/07 05:04:04;;;;;;;13.05;6.43;;;;;;;13.61;65.11;99742.28;4440411;32;34725;-86
2023/10/07 05:06:35;;;;;;;13.43;6.87;;;;;;;13.75;64.56;99737.19;4464822;32;34779;-85
2023/10/07 05:09:09;;;;;;;11.00;6.40;;;;;;;13.64;64.82;99739.72;4437116;32;33504;-86
2023/10/07 05:11:40;;;;;;;14.07;6.65;;;;;;;13.45;65.63;99742.97;4437623;32;32652;-86
2023/10/07 05:14:10;;;;;;;13.93;6.82;;;;;;;13.57;65.32;99743.97;4440074;32;33899;-86
2023/10/07 05:16:38;;;;;;;12.00;7.05;;;;;;;13.61;65.56;99739.69;4452801;32;34879;-86
2023/10/07 05:19:09;;;;;;;13.82;7.43;;;;;;;13.58;66.21;99734.44;4452311;32;34675;-88
2023/10/07 05:21:37;;;;;;;12.30;6.60;;;;;;;13.64;66.01;99734.50;4456282;32;34024;-88
2023/10/07 05:24:09;;;;;;;15.85;7.70;;;;;;;13.70;65.96;99734.53;4452404;32;33221;-85
2023/10/07 05:26:40;;;;;;;11.75;6.47;;;;;;;13.80;65.87;99745.94;4465889;32;34490;-86
2023/10/07 05:29:12;;;;;;;11.48;6.53;;;;;;;13.91;65.74;99748.63;4453138;32;33678;-86
2023/10/07 05:31:42;;;;;;;12.25;6.18;;;;;;;14.01;65.69;99751.31;4453538;32;33402;-86
2023/10/07 05:34:10;;;;;;;12.90;7.25;;;;;;;13.95;66.43;99743.47;4450051;32;33474;-87
2023/10/07 05:36:39;;;;;;;11.15;6.60;;;;;;;14.01;66.47;99746.09;4450202;32;33770;-86
2023/10/07 05:39:15;;;;;;;11.35;6.82;;;;;;;14.10;66.33;99745.31;4452407;32;33651;-90
2023/10/07 05:41:44;;;;;;;12.45;7.20;;;;;;;14.24;66.47;99748.00;4450917;32;33013;-85
2023/10/07 05:44:14;;;;;;;14.38;7.55;;;;;;;14.34;66.72;99744.63;4450963;32;33750;-85
2023/10/07 05:46:42;;;;;;;17.17;8.93;;;;;;;14.51;65.95;99742.16;4452526;32;34895;-87
2023/10/07 05:49:10;;;;;;;17.35;8.40;;;;;;;14.38;66.29;99748.13;4461357;32;34073;-86
2023/10/07 05:51:38;;;;;;;16.65;8.25;;;;;;;14.48;66.09;99750.78;4457110;32;33620;-87
2023/10/07 05:54:05;;;;;;;13.93;7.80;;;;;;;14.52;65.92;99770.00;4454218;32;33634;-82
2023/10/07 05:56:33;;;;;;;17.67;7.43;;;;;;;14.63;65.35;99757.00;4465885;32;33986;-85
2023/10/07 05:59:01;;;;;;;16.23;7.22;;;;;;;14.59;65.38;99759.59;4466038;32;34580;-87
2023/10/07 06:01:33;;;;;;;14.27;8.00;;;;;;;14.84;64.52;99752.75;4468101;32;34083;-86
2023/10/07 06:04:01;;;;;;;17.52;7.47;;;;;;;14.99;64.31;99762.41;4468126;32;33592;-87
2023/10/07 06:06:30;;;;;;;15.02;8.30;;;;;;;14.72;65.04;99757.91;4467981;32;33883;-88
2023/10/07 06:09:00;;;;;;;15.48;9.07;;;;;;;15.15;63.56;99752.00;4450617;32;34095;-85
2023/10/07 06:11:34;;;;;;;13.65;6.97;;;;;;;15.21;63.13;99763.38;4462284;32;33669;-86
2023/10/07 06:14:06;;;;;;;13.40;7.57;;;;;;;15.15;63.43;99762.47;4453527;32;33729;-87
2023/10/07 06:16:34;;;;;;;15.70;7.62;;;;;;;15.19;63.38;99759.88;4456965;32;34019;-86
2023/10/07 06:19:02;;;;;;;14.73;7.57;;;;;;;15.25;63.04;99759.03;4438760;32;33403;-86
2023/10/07 06:21:31;;;;;;;13.95;7.12;;;;;;;15.12;63.25;99758.13;4441240;32;33161;-86
2023/10/07 06:24:00;;;;;;;12.60;7.85;;;;;;;15.50;62.39;99766.06;4459148;32;34721;-87
2023/10/07 06:26:31;;;;;;;15.95;7.57;;;;;;;15.39;62.43;99761.69;4452302;32;34868;-87
2023/10/07 06:29:05;;;;;;;12.77;6.78;;;;;;;15.74;61.17;99761.78;4452423;32;33357;-87
2023/10/07 06:31:35;;;;;;;13.80;7.93;;;;;;;15.72;61.27;99764.41;4452392;32;33178;-86
2023/10/07 06:34:12;;;;;;;14.98;7.43;;;;;;;15.97;60.32;99757.44;4451828;32;33787;-87
2023/10/07 06:36:40;;;;;;;13.68;7.15;;;;;;;15.69;61.11;99766.16;4452405;32;33820;-86
2023/10/07 06:39:08;;;;;;;13.38;7.32;;;;;;;15.69;61.28;99763.53;4465294;32;34871;-87
2023/10/07 06:41:36;;;;;;;12.45;7.15;;;;;;;15.64;61.53;99767.81;4467971;32;33675;-87
2023/10/07 06:44:03;;;;;;;12.93;7.20;;;;;;;15.84;61.33;99768.78;4467535;32;33855;-86
2023/10/07 06:46:41;;;;;;;14.57;6.97;;;;;;;15.86;60.97;99774.00;4467608;32;33622;-86
2023/10/07 06:49:20;;;;;;;15.57;7.87;;;;;;;15.91;60.99;99781.00;4467467;32;34361;-86
2023/10/07 06:51:58;;;;;;;12.75;7.15;;;;;;;15.88;61.27;99773.13;4454776;32;32654;-91
2023/10/07 06:54:32;;;;;;;19.02;7.70;;;;;;;16.25;60.37;99778.34;4439416;32;34575;-87
2023/10/07 06:57:01;;;;;;;13.95;7.07;;;;;;;16.27;60.15;99771.41;4452556;32;34061;-88
2023/10/07 06:59:30;;;;;;;14.10;7.07;;;;;;;16.37;59.78;99773.13;4438176;32;33994;-88
2023/10/07 07:02:05;;;;;;;13.43;6.93;;;;;;;16.56;59.68;99776.59;4438222;32;33419;-86
2023/10/07 07:04:35;;;;;;;19.48;7.40;;;;;;;16.49;59.50;99770.50;4452055;32;33505;-86
2023/10/07 07:07:16;;;;;;;14.85;7.40;;;;;;;16.71;59.09;99763.47;4451799;32;34570;-87
2023/10/07 07:12:21;;;;;;;12.88;6.43;;;;;;;17.03;57.21;99768.62;4438589;32;33424;-91
2023/10/07 07:14:59;;;;;;;13.15;6.12;;;;;;;16.72;58.25;99764.34;4438690;32;33474;-87
2023/10/07 07:17:29;;;;;;;13.20;6.57;;;;;;;16.75;59.06;99769.62;4451467;32;33865;-87
2023/10/07 07:22:42;;;;;;;13.38;5.70;;;;;;;17.01;57.80;99762.53;4452053;32;33537;-88
2023/10/07 07:27:48;;;;;;;12.32;5.25;;;;;;;16.60;58.90;99765.25;4437692;32;33622;-88
2023/10/07 07:30:20;;;;;;;13.60;5.60;;;;;;;16.97;57.91;99770.41;4452192;32;33430;-87
2023/10/07 07:32:55;;;;;;;15.15;6.60;;;;;;;17.28;58.10;99776.41;4451576;32;32994;-88
2023/10/07 07:35:40;;;;;;;12.82;6.15;;;;;;;17.09;58.15;99769.50;4452199;32;33909;-88
2023/10/07 07:38:54;;;;;;;11.25;6.18;;;;;;;17.19;57.08;99772.06;4440204;32;34521;-88
2023/10/07 07:41:05;;;;;;;13.52;6.50;;;;;;;17.06;58.14;99780.00;4442085;32;33365;-86
2023/10/07 07:43:36;;;;;;;10.00;5.95;;;;;;;17.40;58.05;99776.34;4443084;32;32284;-86
2023/10/07 07:48:48;;;;;;;12.20;5.80;;;;;;;17.77;56.56;99773.53;4451731;32;33800;-86
2023/10/07 07:51:17;;;;;;;14.77;5.78;;;;;;;18.23;54.67;99775.81;4449466;32;33676;-89
2023/10/07 07:53:45;;;;;;;12.63;5.22;;;;;;;18.13;54.78;99785.50;4451721;32;33939;-88
2023/10/07 07:56:13;;;;;;;11.05;5.60;;;;;;;17.86;54.92;99776.09;4437788;32;34521;-87
2023/10/07 07:58:46;;;;;;;11.57;5.60;;;;;;;17.92;55.09;99776.06;4454078;32;34889;-88
2023/10/07 08:01:53;;;;;;;12.10;6.20;;;;;;;17.64;55.22;99772.69;4453764;32;33770;-87
2023/10/07 08:04:22;;;;;;;12.68;6.32;;;;;;;17.54;55.49;99772.75;4454784;32;34323;-86
2023/10/07 08:06:52;;;;;;;12.02;5.37;;;;;;;18.15;54.20;99768.00;4467409;32;33632;-86
2023/10/07 08:09:21;;;;;;;18.37;6.10;;;;;;;17.96;54.27;99764.66;4456551;32;34352;-87
2023/10/07 08:11:49;;;;;;;13.62;6.90;;;;;;;18.29;54.13;99772.25;4452312;32;33916;-91
2023/10/07 08:14:17;;;;;;;12.85;5.80;;;;;;;18.34;53.75;99773.97;4455638;32;33452;-87
2023/10/07 08:16:51;;;;;;;12.30;6.37;;;;;;;18.31;53.79;99773.97;4449269;32;34522;-88
2023/10/07 08:19:24;;;;;;;10.15;4.97;;;;;;;18.23;53.73;99770.56;4455258;32;34556;-86
2023/10/07 08:21:52;;;;;;;11.35;5.35;;;;;;;18.63;53.03;99760.53;4438409;32;34602;-85
2023/10/07 08:24:21;;;;;;;13.00;5.70;;;;;;;18.28;53.88;99765.25;4456190;32;32957;-86
2023/10/07 08:26:49;;;;;;;11.63;5.62;;;;;;;18.52;53.43;99769.41;4456260;32;34709;-85
2023/10/07 08:29:31;;;;;;;12.77;6.00;;;;;;;18.53;53.57;99764.16;4453404;32;33624;-85
2023/10/07 08:32:01;;;;;;;12.32;4.97;;;;;;;18.55;53.11;99766.75;4464735;32;33766;-85
2023/10/07 08:34:33;;;;;;;12.75;5.47;;;;;;;18.76;52.70;99766.56;4451750;32;33002;-84
2023/10/07 08:37:14;;;;;;;9.88;5.62;;;;;;;18.80;52.49;99770.03;4458545;32;33617;-91
2023/10/07 08:39:46;;;;;;;14.07;5.97;;;;;;;19.27;51.13;99750.19;4466735;32;34783;-87
2023/10/07 08:42:18;;;;;;;12.32;5.55;;;;;;;19.76;49.75;99746.88;4465393;32;33795;-90
2023/10/07 08:44:58;;;;;;;12.55;6.20;;;;;;;18.93;51.02;99748.84;4453565;32;33715;-87
2023/10/07 08:47:39;;;;;;;12.98;6.55;;;;;;;18.71;51.14;99749.97;4463956;32;33542;-83
2023/10/07 08:50:08;;;;;;;14.43;6.45;;;;;;;18.87;51.45;99754.19;4444092;32;34880;-88
2023/10/07 08:52:36;;;;;;;13.13;5.72;;;;;;;19.04;50.65;99739.97;4440135;32;33383;-91
2023/10/07 08:55:09;;;;;;;9.95;5.10;;;;;;;18.95;51.34;99746.22;4440492;32;32287;-86
2023/10/07 08:57:37;;;;;;;13.25;5.72;;;;;;;19.09;51.67;99746.03;4460417;32;33949;-85
2023/10/07 09:00:11;;;;;;;11.43;5.40;;;;;;;19.61;50.09;99745.31;4444527;32;34458;-84
2023/10/07 09:02:40;;;;;;;9.43;5.05;;;;;;;19.96;48.74;99746.56;4458020;32;32555;-87
2023/10/07 09:05:16;;;;;;;11.25;4.82;;;;;;;19.51;49.06;99749.84;4452680;32;33558;-87
2023/10/07 09:07:48;;;;;;;13.85;5.82;;;;;;;20.05;48.51;99739.41;4451045;32;33936;-88
2023/10/07 09:10:17;;;;;;;10.48;4.85;;;;;;;20.10;48.75;99734.91;4451145;32;34656;-85
2023/10/07 09:12:56;;;;;;;11.20;5.20;;;;;;;20.38;48.67;99737.06;4437330;32;33784;-86
2023/10/07 09:15:28;;;;;;;10.57;5.40;;;;;;;20.39;48.10;99737.03;4451049;32;33352;-84
2023/10/07 09:18:06;;;;;;;11.00;5.30;;;;;;;20.33;48.02;99739.78;4452274;32;33988;-83
2023/10/07 09:20:36;;;;;;;10.55;4.45;;;;;;;20.31;48.25;99730.19;4468016;32;34056;-86
2023/10/07 09:23:15;;;;;;;8.65;4.72;;;;;;;20.96;46.64;99730.72;4476300;32;34754;-83
2023/10/07 09:25:50;;;;;;;12.77;4.95;;;;;;;20.51;47.05;99729.84;4451172;32;34426;-86
2023/10/07 09:28:19;;;;;;;8.65;4.15;;;;;;;20.72;45.45;99724.19;4437456;32;34606;-83
2023/10/07 09:30:48;;;;;;;10.00;5.07;;;;;;;20.83;46.13;99722.16;4455122;32;34119;-84
2023/10/07 09:33:17;;;;;;;14.63;5.32;;;;;;;20.86;45.84;99729.16;4440745;32;34044;-89
2023/10/07 09:38:41;;;;;;;14.75;5.35;;;;;;;20.75;45.75;99726.72;4457031;32;33397;-84
2023/10/07 09:41:24;;;;;;;8.88;4.65;;;;;;;20.81;45.10;99731.88;4453375;32;33675;-85
2023/10/07 09:43:52;;;;;;;10.48;5.25;;;;;;;20.64;45.91;99726.94;4452796;32;34673;-87
2023/10/07 09:46:39;;;;;;;11.52;5.22;;;;;;;20.47;46.46;99725.50;4446887;32;34433;-85
2023/10/07 09:49:07;;;;;;;10.15;4.90;;;;;;;20.82;45.56;99717.81;4456267;32;34771;-87
2023/10/07 09:51:35;;;;;;;8.80;4.57;;;;;;;20.79;45.55;99709.94;4466308;32;33936;-86
2023/10/07 09:54:27;;;;;;;10.25;4.87;;;;;;;21.14;44.62;99714.50;4466991;32;33885;-85
2023/10/07 09:57:20;;;;;;;8.23;4.03;;;;;;;21.07;44.84;99718.19;4461231;32;33495;-86
2023/10/07 10:00:00;;;;;;;16.00;7.32;;;;;;;21.44;43.76;99717.41;4465816;32;33721;-86
2023/10/07 10:02:32;;;;;;;12.98;6.28;;;;;;;21.85;43.46;99707.62;4453447;32;34480;-86
2023/10/07 10:05:38;;;;;;;12.18;5.68;;;;;;;21.91;42.37;99711.91;4462003;32;34774;-85
2023/10/07 10:08:13;;;;;;;14.87;6.70;;;;;;;21.58;42.25;99709.16;4438694;32;33037;-86
2023/10/07 10:10:46;;;;;;;13.40;6.10;;;;;;;21.73;42.70;99714.06;4454484;32;33749;-86
2023/10/07 10:16:29;;;;;;;13.18;4.47;;;;;;;21.89;42.88;99697.84;4435321;32;36435;-85
2023/10/07 10:19:22;;;;;;;13.75;7.10;;;;;;;22.13;40.58;99696.37;4455939;32;32178;-84
2023/10/07 10:21:45;;;;;;;67.07;46.58;;;;;;;22.34;40.81;99696.69;4468003;32;35161;-85
2023/10/07 10:24:18;;;;;;;36.97;22.10;;;;;;;22.07;42.22;99692.97;4466679;32;34262;-86
2023/10/07 10:26:46;;;;;;;11.55;4.57;;;;;;;22.00;41.16;99688.75;4444276;32;34263;-84
2023/10/07 10:29:25;;;;;;;13.32;6.37;;;;;;;22.35;40.65;99684.38;4466683;32;34549;-93
2023/10/07 10:31:58;;;;;;;22.20;11.88;;;;;;;22.18;40.90;99681.31;4467466;32;33491;-86
2023/10/07 10:34:26;;;;;;;10.65;4.97;;;;;;;22.26;41.36;99688.13;4462356;32;33624;-86
2023/10/07 10:36:56;;;;;;;12.77;6.28;;;;;;;22.02;40.46;99679.03;4457852;32;33743;-86
2023/10/07 10:39:31;;;;;;;9.52;5.10;;;;;;;21.84;40.85;99688.28;4464141;32;34198;-86
2023/10/07 10:42:13;;;;;;;13.70;7.72;;;;;;;22.28;40.71;99678.38;4466008;32;34055;-85
2023/10/07 10:44:46;;;;;;;17.12;10.38;;;;;;;22.11;40.77;99680.56;4458615;32;33717;-85
2023/10/07 10:47:16;;;;;;;11.75;5.70;;;;;;;22.55;40.05;99673.25;4466087;32;34153;-84
2023/10/07 10:49:45;;;;;;;20.88;11.50;;;;;;;22.59;39.96;99669.62;4467346;32;33544;-85
2023/10/07 10:52:13;;;;;;;17.02;9.23;;;;;;;22.76;39.84;99661.19;4453525;32;33816;-87
2023/10/07 10:54:41;;;;;;;9.93;4.40;;;;;;;23.16;39.67;99655.63;4460169;32;33958;-87
2023/10/07 10:57:13;;;;;;;12.75;5.65;;;;;;;23.01;37.91;99648.16;4457500;32;34568;-84
2023/10/07 10:59:43;;;;;;;11.20;5.53;;;;;;;22.99;38.46;99637.59;4467710;32;33403;-84
2023/10/07 11:02:12;;;;;;;13.20;7.82;;;;;;;23.13;37.76;99631.03;4467054;32;34054;-86
2023/10/07 11:04:40;;;;;;;14.90;7.30;;;;;;;23.25;36.90;99639.44;4452082;32;34947;-84
2023/10/07 11:07:08;;;;;;;8.73;4.47;;;;;;;23.35;36.44;99633.88;4452119;32;33723;-83
2023/10/07 11:09:38;;;;;;;9.48;3.50;;;;;;;23.17;37.36;99628.25;4447539;32;34275;-85
2023/10/07 11:12:09;;;;;;;7.68;3.47;;;;;;;23.85;34.84;99612.84;4454073;32;34829;-85
2023/10/07 11:14:40;;;;;;;10.82;4.05;;;;;;;23.68;34.49;99613.44;4451210;32;33896;-85
2023/10/07 11:17:12;;;;;;;13.23;4.35;;;;;;;24.09;33.37;99611.09;4452052;32;34200;-85
2023/10/07 11:19:42;;;;;;;9.70;3.90;;;;;;;23.65;33.58;99606.41;4451125;32;33461;-87
2023/10/07 11:22:19;;;;;;;8.85;3.45;;;;;;;23.62;34.00;99605.66;4455259;32;34203;-84
2023/10/07 11:24:52;;;;;;;10.23;4.05;;;;;;;23.58;32.86;99599.59;4467541;32;33964;-86
2023/10/07 11:27:23;;;;;;;10.60;4.07;;;;;;;23.71;33.31;99600.06;4448104;32;33603;-84
2023/10/07 11:29:58;;;;;;;10.80;4.03;;;;;;;23.63;33.70;99600.28;4456736;32;34172;-86
2023/10/07 11:32:38;;;;;;;8.50;3.67;;;;;;;23.49;34.29;99605.19;4464118;32;33553;-84
2023/10/07 11:35:19;;;;;;;12.20;6.28;;;;;;;23.46;34.21;99600.88;4465472;32;34310;-83
2023/10/07 11:37:57;;;;;;;9.32;3.97;;;;;;;23.55;34.53;99594.38;4458031;32;34796;-84
2023/10/07 11:40:27;;;;;;;10.23;3.45;;;;;;;23.81;32.99;99592.69;4460134;32;34365;-85
2023/10/07 11:42:56;;;;;;;8.43;3.60;;;;;;;24.08;33.51;99593.50;4449689;32;33473;-84
2023/10/07 11:45:26;;;;;;;8.82;3.85;;;;;;;23.47;33.23;99585.84;4458915;32;34052;-85
2023/10/07 11:47:57;;;;;;;7.18;3.55;;;;;;;23.52;33.40;99589.19;4455834;32;34640;-85
2023/10/07 11:50:29;;;;;;;7.87;3.67;;;;;;;24.00;32.69;99591.13;4451808;32;34195;-86
2023/10/07 11:52:57;;;;;;;8.95;4.32;;;;;;;23.59;31.72;99580.13;4438257;32;34118;-82
2023/10/07 11:55:24;;;;;;;9.10;4.12;;;;;;;23.78;31.89;99578.62;4451192;32;33918;-84
2023/10/07 11:57:52;;;;;;;7.32;3.62;;;;;;;23.79;32.81;99577.72;4453682;32;33899;-82
2023/10/07 12:00:34;;;;;;;7.82;3.80;;;;;;;24.22;32.96;99576.19;4466421;32;34238;-84
2023/10/07 12:03:06;;;;;;;9.63;3.72;;;;;;;23.80;32.24;99589.16;4466877;32;34017;-84
2023/10/07 12:05:38;;;;;;;8.38;3.78;;;;;;;23.76;32.17;99576.97;4467270;32;34923;-85
2023/10/07 12:08:08;;;;;;;8.05;3.65;;;;;;;23.48;31.71;99585.78;4464983;32;34937;-84
2023/10/07 12:10:38;;;;;;;9.98;3.75;;;;;;;24.09;30.82;99577.53;4459390;32;34520;-81
2023/10/07 12:13:11;;;;;;;8.20;3.40;;;;;;;23.85;31.74;99573.13;4457068;32;34619;-81
2023/10/07 12:15:42;;;;;;;7.05;3.30;;;;;;;23.67;32.19;99562.25;4466946;32;34950;-82
2023/10/07 12:18:30;;;;;;;6.97;3.10;;;;;;;23.99;31.37;99562.91;4455022;32;34172;-84
2023/10/07 12:21:00;;;;;;;10.60;3.03;;;;;;;23.75;32.35;99554.91;4457509;32;34229;-84
2023/10/07 12:23:30;;;;;;;9.27;4.12;;;;;;;23.87;33.19;99558.06;4451147;32;34886;-83
2023/10/07 12:25:57;;;;;;;7.57;3.50;;;;;;;23.77;33.25;99557.50;4459329;32;34149;-82
2023/10/07 12:28:25;;;;;;;7.43;3.30;;;;;;;23.87;33.08;99558.91;4453749;32;35234;-87
2023/10/07 12:30:52;;;;;;;7.20;3.70;;;;;;;24.14;33.70;99562.34;4453610;32;34653;-84
2023/10/07 12:33:20;;;;;;;9.23;3.83;;;;;;;23.45;34.39;99555.91;4454437;32;33866;-83
2023/10/07 12:36:14;;;;;;;9.63;3.45;;;;;;;23.34;35.10;99553.66;4451411;32;33778;-83